Terminal Aerodrome Forecast
Issued by NWS

Current Version | Previous Version | Graphics & Text | Print | Product List | Glossary On
Versions: 1 2 3 4 5 6 7 8 9 10 11 12 13 14 15 16
000
FTUS41 KRNK 101120
TAFLWB
TAF
KLWB 101120Z 1012/1112 31007KT P6SM -SN SCT019 OVC027
      TEMPO 1012/1014 4SM -SHSN OVC040
     FM101400 28010G17KT P6SM BKN025
     FM101600 28010G17KT P6SM BKN035
     FM102100 26006KT P6SM FEW250
     FM110600 26007KT P6SM SCT045=

USA.gov is the U.S. government's official web portal to all federal, state and local government web resources and services.